sensor_id;sensor_type;location;lat;lon;timestamp;P1;durP1;ratioP1;P2;durP2;ratioP2
80494;SDS011;69819;48.798;11.770;2024-02-21T00:00:56;1.88;;;1.63;;
80494;SDS011;69819;48.798;11.770;2024-02-21T00:03:21;3.65;;;1.70;;
80494;SDS011;69819;48.798;11.770;2024-02-21T00:05:47;2.58;;;1.70;;
80494;SDS011;69819;48.798;11.770;2024-02-21T00:08:13;2.88;;;1.30;;
80494;SDS011;69819;48.798;11.770;2024-02-21T00:10:39;2.67;;;1.90;;
80494;SDS011;69819;48.798;11.770;2024-02-21T00:13:05;4.90;;;1.88;;
80494;SDS011;69819;48.798;11.770;2024-02-21T00:15:30;3.80;;;1.92;;
80494;SDS011;69819;48.798;11.770;2024-02-21T00:17:56;3.25;;;1.65;;
80494;SDS011;69819;48.798;11.770;2024-02-21T00:20:22;2.80;;;1.60;;
80494;SDS011;69819;48.798;11.770;2024-02-21T00:22:48;4.05;;;1.90;;
80494;SDS011;69819;48.798;11.770;2024-02-21T00:25:14;2.53;;;1.70;;
80494;SDS011;69819;48.798;11.770;2024-02-21T00:27:39;3.97;;;1.90;;
80494;SDS011;69819;48.798;11.770;2024-02-21T00:30:05;3.67;;;1.92;;
80494;SDS011;69819;48.798;11.770;2024-02-21T00:32:32;2.47;;;1.65;;
80494;SDS011;69819;48.798;11.770;2024-02-21T00:34:59;2.45;;;1.55;;
80494;SDS011;69819;48.798;11.770;2024-02-21T00:37:26;2.75;;;1.67;;
80494;SDS011;69819;48.798;11.770;2024-02-21T00:39:53;3.22;;;1.77;;
80494;SDS011;69819;48.798;11.770;2024-02-21T00:42:19;2.38;;;1.52;;
80494;SDS011;69819;48.798;11.770;2024-02-21T00:44:46;3.20;;;1.75;;
80494;SDS011;69819;48.798;11.770;2024-02-21T00:47:12;2.47;;;1.80;;
80494;SDS011;69819;48.798;11.770;2024-02-21T00:49:38;5.30;;;1.95;;
80494;SDS011;69819;48.798;11.770;2024-02-21T00:52:04;3.40;;;1.88;;
80494;SDS011;69819;48.798;11.770;2024-02-21T00:54:29;3.53;;;1.83;;
80494;SDS011;69819;48.798;11.770;2024-02-21T00:56:55;3.20;;;1.63;;
80494;SDS011;69819;48.798;11.770;2024-02-21T00:59:21;2.35;;;1.83;;
80494;SDS011;69819;48.798;11.770;2024-02-21T01:01:47;3.05;;;1.70;;
80494;SDS011;69819;48.798;11.770;2024-02-21T01:04:12;2.83;;;1.60;;
80494;SDS011;69819;48.798;11.770;2024-02-21T01:06:38;2.75;;;1.80;;
80494;SDS011;69819;48.798;11.770;2024-02-21T01:09:07;2.80;;;1.70;;
80494;SDS011;69819;48.798;11.770;2024-02-21T01:11:33;2.53;;;1.55;;
80494;SDS011;69819;48.798;11.770;2024-02-21T01:13:59;3.72;;;1.73;;
80494;SDS011;69819;48.798;11.770;2024-02-21T01:16:25;3.80;;;1.52;;
80494;SDS011;69819;48.798;11.770;2024-02-21T01:18:51;3.97;;;1.60;;
80494;SDS011;69819;48.798;11.770;2024-02-21T01:21:17;1.95;;;1.55;;
80494;SDS011;69819;48.798;11.770;2024-02-21T01:23:43;2.83;;;1.52;;
80494;SDS011;69819;48.798;11.770;2024-02-21T01:26:09;3.05;;;1.67;;
80494;SDS011;69819;48.798;11.770;2024-02-21T01:28:38;3.60;;;1.52;;
80494;SDS011;69819;48.798;11.770;2024-02-21T01:31:03;2.15;;;1.45;;
80494;SDS011;69819;48.798;11.770;2024-02-21T01:33:29;3.15;;;1.80;;
80494;SDS011;69819;48.798;11.770;2024-02-21T01:36:00;3.13;;;1.65;;
80494;SDS011;69819;48.798;11.770;2024-02-21T01:38:27;4.55;;;1.55;;
80494;SDS011;69819;48.798;11.770;2024-02-21T01:40:53;3.67;;;1.58;;
80494;SDS011;69819;48.798;11.770;2024-02-21T01:43:20;4.15;;;1.80;;
80494;SDS011;69819;48.798;11.770;2024-02-21T01:45:47;3.13;;;1.25;;
80494;SDS011;69819;48.798;11.770;2024-02-21T01:48:17;2.00;;;1.27;;
80494;SDS011;69819;48.798;11.770;2024-02-21T01:50:44;2.55;;;1.48;;
80494;SDS011;69819;48.798;11.770;2024-02-21T01:53:25;2.38;;;1.30;;
80494;SDS011;69819;48.798;11.770;2024-02-21T01:55:55;2.33;;;1.23;;
80494;SDS011;69819;48.798;11.770;2024-02-21T01:58:21;3.10;;;1.33;;
80494;SDS011;69819;48.798;11.770;2024-02-21T02:00:49;2.58;;;1.55;;
80494;SDS011;69819;48.798;11.770;2024-02-21T02:03:15;4.32;;;1.77;;
80494;SDS011;69819;48.798;11.770;2024-02-21T02:05:43;2.38;;;1.48;;
80494;SDS011;69819;48.798;11.770;2024-02-21T02:08:13;2.00;;;1.60;;
80494;SDS011;69819;48.798;11.770;2024-02-21T02:10:44;1.83;;;1.33;;
80494;SDS011;69819;48.798;11.770;2024-02-21T02:13:11;2.80;;;1.48;;
80494;SDS011;69819;48.798;11.770;2024-02-21T02:15:46;3.88;;;1.73;;
80494;SDS011;69819;48.798;11.770;2024-02-21T02:18:14;2.22;;;1.60;;
80494;SDS011;69819;48.798;11.770;2024-02-21T02:20:43;2.28;;;1.48;;
80494;SDS011;69819;48.798;11.770;2024-02-21T02:23:10;1.83;;;1.35;;
80494;SDS011;69819;48.798;11.770;2024-02-21T02:26:05;2.40;;;1.30;;
80494;SDS011;69819;48.798;11.770;2024-02-21T02:28:32;2.35;;;1.23;;
80494;SDS011;69819;48.798;11.770;2024-02-21T02:30:58;2.55;;;1.20;;
80494;SDS011;69819;48.798;11.770;2024-02-21T02:33:24;2.28;;;1.25;;
80494;SDS011;69819;48.798;11.770;2024-02-21T02:35:49;2.28;;;1.45;;
80494;SDS011;69819;48.798;11.770;2024-02-21T02:38:15;2.45;;;1.40;;
80494;SDS011;69819;48.798;11.770;2024-02-21T02:40:41;3.83;;;1.30;;
80494;SDS011;69819;48.798;11.770;2024-02-21T02:43:07;1.60;;;1.20;;
80494;SDS011;69819;48.798;11.770;2024-02-21T02:45:33;2.20;;;1.40;;
80494;SDS011;69819;48.798;11.770;2024-02-21T02:47:59;2.65;;;1.40;;
80494;SDS011;69819;48.798;11.770;2024-02-21T02:50:26;2.47;;;1.10;;
80494;SDS011;69819;48.798;11.770;2024-02-21T02:52:53;1.35;;;1.08;;
80494;SDS011;69819;48.798;11.770;2024-02-21T02:55:19;1.85;;;1.23;;
80494;SDS011;69819;48.798;11.770;2024-02-21T02:57:45;2.00;;;1.38;;
80494;SDS011;69819;48.798;11.770;2024-02-21T03:00:12;1.25;;;1.15;;
80494;SDS011;69819;48.798;11.770;2024-02-21T03:02:40;2.90;;;1.85;;
80494;SDS011;69819;48.798;11.770;2024-02-21T03:05:12;4.57;;;1.52;;
80494;SDS011;69819;48.798;11.770;2024-02-21T03:07:43;2.13;;;1.17;;
80494;SDS011;69819;48.798;11.770;2024-02-21T03:10:10;2.00;;;1.20;;
80494;SDS011;69819;48.798;11.770;2024-02-21T03:12:36;2.30;;;1.27;;
80494;SDS011;69819;48.798;11.770;2024-02-21T03:15:03;1.77;;;1.15;;
80494;SDS011;69819;48.798;11.770;2024-02-21T03:17:30;1.90;;;1.17;;
80494;SDS011;69819;48.798;11.770;2024-02-21T03:19:57;1.27;;;1.13;;
80494;SDS011;69819;48.798;11.770;2024-02-21T03:22:24;1.20;;;1.02;;
80494;SDS011;69819;48.798;11.770;2024-02-21T03:24:50;2.03;;;1.30;;
80494;SDS011;69819;48.798;11.770;2024-02-21T03:27:16;2.75;;;1.30;;
80494;SDS011;69819;48.798;11.770;2024-02-21T03:29:42;2.85;;;1.10;;
80494;SDS011;69819;48.798;11.770;2024-02-21T03:32:08;1.98;;;1.10;;
80494;SDS011;69819;48.798;11.770;2024-02-21T03:34:34;2.10;;;1.05;;
80494;SDS011;69819;48.798;11.770;2024-02-21T03:37:00;2.72;;;1.20;;
80494;SDS011;69819;48.798;11.770;2024-02-21T03:39:26;2.35;;;1.15;;
80494;SDS011;69819;48.798;11.770;2024-02-21T03:41:52;2.08;;;1.08;;
80494;SDS011;69819;48.798;11.770;2024-02-21T03:44:18;3.50;;;1.10;;
80494;SDS011;69819;48.798;11.770;2024-02-21T03:46:44;1.50;;;1.05;;
80494;SDS011;69819;48.798;11.770;2024-02-21T03:49:10;2.08;;;1.30;;
80494;SDS011;69819;48.798;11.770;2024-02-21T03:51:36;3.00;;;1.40;;
80494;SDS011;69819;48.798;11.770;2024-02-21T03:54:02;1.95;;;1.35;;
80494;SDS011;69819;48.798;11.770;2024-02-21T03:56:28;2.55;;;1.13;;
80494;SDS011;69819;48.798;11.770;2024-02-21T03:58:54;1.58;;;0.95;;
80494;SDS011;69819;48.798;11.770;2024-02-21T04:01:20;1.95;;;1.10;;
80494;SDS011;69819;48.798;11.770;2024-02-21T04:03:46;2.35;;;1.17;;
80494;SDS011;69819;48.798;11.770;2024-02-21T04:06:12;3.10;;;1.30;;
80494;SDS011;69819;48.798;11.770;2024-02-21T04:08:38;2.20;;;1.23;;
80494;SDS011;69819;48.798;11.770;2024-02-21T04:11:04;2.55;;;1.23;;
80494;SDS011;69819;48.798;11.770;2024-02-21T04:13:30;3.00;;;1.10;;
80494;SDS011;69819;48.798;11.770;2024-02-21T04:15:56;1.60;;;1.00;;
80494;SDS011;69819;48.798;11.770;2024-02-21T04:18:21;2.22;;;1.08;;
80494;SDS011;69819;48.798;11.770;2024-02-21T04:20:47;2.53;;;0.93;;
80494;SDS011;69819;48.798;11.770;2024-02-21T04:23:13;1.85;;;1.10;;
80494;SDS011;69819;48.798;11.770;2024-02-21T04:25:39;1.92;;;1.17;;
80494;SDS011;69819;48.798;11.770;2024-02-21T04:28:05;2.47;;;1.00;;
80494;SDS011;69819;48.798;11.770;2024-02-21T04:30:31;2.25;;;1.33;;
80494;SDS011;69819;48.798;11.770;2024-02-21T04:32:56;2.38;;;0.80;;
80494;SDS011;69819;48.798;11.770;2024-02-21T04:35:22;1.27;;;1.17;;
80494;SDS011;69819;48.798;11.770;2024-02-21T04:37:49;1.10;;;0.90;;
80494;SDS011;69819;48.798;11.770;2024-02-21T04:40:14;2.33;;;1.08;;
80494;SDS011;69819;48.798;11.770;2024-02-21T04:42:41;2.45;;;1.20;;
80494;SDS011;69819;48.798;11.770;2024-02-21T04:45:08;3.67;;;1.30;;
80494;SDS011;69819;48.798;11.770;2024-02-21T04:47:34;2.05;;;1.23;;
80494;SDS011;69819;48.798;11.770;2024-02-21T04:50:00;2.50;;;1.50;;
80494;SDS011;69819;48.798;11.770;2024-02-21T04:52:26;3.13;;;1.55;;
80494;SDS011;69819;48.798;11.770;2024-02-21T04:54:52;2.67;;;1.98;;
80494;SDS011;69819;48.798;11.770;2024-02-21T04:57:17;3.47;;;2.00;;
80494;SDS011;69819;48.798;11.770;2024-02-21T04:59:44;4.55;;;2.35;;
80494;SDS011;69819;48.798;11.770;2024-02-21T05:02:10;2.65;;;1.70;;
80494;SDS011;69819;48.798;11.770;2024-02-21T05:04:36;2.47;;;1.50;;
80494;SDS011;69819;48.798;11.770;2024-02-21T05:07:03;2.97;;;1.52;;
80494;SDS011;69819;48.798;11.770;2024-02-21T05:09:30;3.33;;;1.40;;
80494;SDS011;69819;48.798;11.770;2024-02-21T05:11:56;1.75;;;1.02;;
80494;SDS011;69819;48.798;11.770;2024-02-21T05:14:24;3.33;;;1.27;;
80494;SDS011;69819;48.798;11.770;2024-02-21T05:16:51;3.42;;;1.60;;
80494;SDS011;69819;48.798;11.770;2024-02-21T05:19:18;2.92;;;0.98;;
80494;SDS011;69819;48.798;11.770;2024-02-21T05:21:44;2.67;;;1.30;;
80494;SDS011;69819;48.798;11.770;2024-02-21T05:24:10;1.20;;;1.08;;
80494;SDS011;69819;48.798;11.770;2024-02-21T05:26:36;2.55;;;0.90;;
80494;SDS011;69819;48.798;11.770;2024-02-21T05:29:02;1.30;;;1.00;;
80494;SDS011;69819;48.798;11.770;2024-02-21T05:31:42;1.73;;;1.08;;
80494;SDS011;69819;48.798;11.770;2024-02-21T05:34:21;2.88;;;1.10;;
80494;SDS011;69819;48.798;11.770;2024-02-21T05:36:47;3.67;;;1.23;;
80494;SDS011;69819;48.798;11.770;2024-02-21T05:39:14;1.63;;;1.33;;
80494;SDS011;69819;48.798;11.770;2024-02-21T05:41:41;2.38;;;1.15;;
80494;SDS011;69819;48.798;11.770;2024-02-21T05:44:07;2.95;;;1.23;;
80494;SDS011;69819;48.798;11.770;2024-02-21T05:46:33;2.83;;;0.90;;
80494;SDS011;69819;48.798;11.770;2024-02-21T05:49:00;2.38;;;1.27;;
80494;SDS011;69819;48.798;11.770;2024-02-21T05:51:26;1.55;;;1.02;;
80494;SDS011;69819;48.798;11.770;2024-02-21T05:53:51;2.63;;;1.25;;
80494;SDS011;69819;48.798;11.770;2024-02-21T05:56:17;2.45;;;1.20;;
80494;SDS011;69819;48.798;11.770;2024-02-21T05:58:44;1.45;;;1.00;;
80494;SDS011;69819;48.798;11.770;2024-02-21T06:01:10;2.95;;;1.20;;
80494;SDS011;69819;48.798;11.770;2024-02-21T06:03:36;1.92;;;1.30;;
80494;SDS011;69819;48.798;11.770;2024-02-21T06:06:02;3.05;;;1.20;;
80494;SDS011;69819;48.798;11.770;2024-02-21T06:08:30;1.80;;;1.10;;
80494;SDS011;69819;48.798;11.770;2024-02-21T06:10:56;1.30;;;1.20;;
80494;SDS011;69819;48.798;11.770;2024-02-21T06:13:22;2.35;;;1.10;;
80494;SDS011;69819;48.798;11.770;2024-02-21T06:15:49;1.80;;;1.17;;
80494;SDS011;69819;48.798;11.770;2024-02-21T06:18:17;1.90;;;1.38;;
80494;SDS011;69819;48.798;11.770;2024-02-21T06:20:43;2.63;;;1.63;;
80494;SDS011;69819;48.798;11.770;2024-02-21T06:23:11;2.80;;;1.40;;
80494;SDS011;69819;48.798;11.770;2024-02-21T06:25:44;1.65;;;1.38;;
80494;SDS011;69819;48.798;11.770;2024-02-21T06:28:12;2.13;;;1.10;;
80494;SDS011;69819;48.798;11.770;2024-02-21T06:30:38;1.77;;;1.48;;
80494;SDS011;69819;48.798;11.770;2024-02-21T06:33:05;4.57;;;1.30;;
80494;SDS011;69819;48.798;11.770;2024-02-21T06:35:32;2.42;;;1.08;;
80494;SDS011;69819;48.798;11.770;2024-02-21T06:37:59;2.63;;;1.00;;
80494;SDS011;69819;48.798;11.770;2024-02-21T06:40:25;2.85;;;1.13;;
80494;SDS011;69819;48.798;11.770;2024-02-21T06:42:50;1.83;;;1.10;;
80494;SDS011;69819;48.798;11.770;2024-02-21T06:45:16;1.95;;;0.90;;
80494;SDS011;69819;48.798;11.770;2024-02-21T06:47:43;4.45;;;1.08;;
80494;SDS011;69819;48.798;11.770;2024-02-21T06:50:09;1.13;;;1.02;;
80494;SDS011;69819;48.798;11.770;2024-02-21T06:52:35;1.83;;;1.08;;
80494;SDS011;69819;48.798;11.770;2024-02-21T06:55:01;2.22;;;1.10;;
80494;SDS011;69819;48.798;11.770;2024-02-21T06:57:30;1.92;;;1.10;;
80494;SDS011;69819;48.798;11.770;2024-02-21T06:59:56;3.08;;;1.00;;
80494;SDS011;69819;48.798;11.770;2024-02-21T07:02:22;1.98;;;1.13;;
80494;SDS011;69819;48.798;11.770;2024-02-21T07:04:48;3.08;;;0.98;;
80494;SDS011;69819;48.798;11.770;2024-02-21T07:07:14;2.58;;;1.08;;
80494;SDS011;69819;48.798;11.770;2024-02-21T07:09:40;2.05;;;1.27;;
80494;SDS011;69819;48.798;11.770;2024-02-21T07:12:06;1.42;;;0.98;;
80494;SDS011;69819;48.798;11.770;2024-02-21T07:14:32;1.60;;;1.15;;
80494;SDS011;69819;48.798;11.770;2024-02-21T07:16:58;3.58;;;1.65;;
80494;SDS011;69819;48.798;11.770;2024-02-21T07:19:24;1.95;;;0.85;;
80494;SDS011;69819;48.798;11.770;2024-02-21T07:21:50;1.88;;;1.05;;
80494;SDS011;69819;48.798;11.770;2024-02-21T07:24:16;2.10;;;1.08;;
80494;SDS011;69819;48.798;11.770;2024-02-21T07:26:42;2.55;;;1.05;;
80494;SDS011;69819;48.798;11.770;2024-02-21T07:29:08;2.22;;;1.00;;
80494;SDS011;69819;48.798;11.770;2024-02-21T07:31:40;1.80;;;1.05;;
80494;SDS011;69819;48.798;11.770;2024-02-21T07:34:07;1.73;;;1.10;;
80494;SDS011;69819;48.798;11.770;2024-02-21T07:36:33;1.13;;;0.90;;
80494;SDS011;69819;48.798;11.770;2024-02-21T07:39:00;1.27;;;1.00;;
80494;SDS011;69819;48.798;11.770;2024-02-21T07:41:25;2.10;;;0.90;;
80494;SDS011;69819;48.798;11.770;2024-02-21T07:43:53;1.65;;;0.95;;
80494;SDS011;69819;48.798;11.770;2024-02-21T07:46:19;1.85;;;1.10;;
80494;SDS011;69819;48.798;11.770;2024-02-21T07:48:45;1.90;;;1.15;;
80494;SDS011;69819;48.798;11.770;2024-02-21T07:51:11;2.33;;;1.20;;
80494;SDS011;69819;48.798;11.770;2024-02-21T07:53:40;2.40;;;1.25;;
80494;SDS011;69819;48.798;11.770;2024-02-21T07:56:12;2.55;;;1.15;;
80494;SDS011;69819;48.798;11.770;2024-02-21T07:58:40;2.25;;;1.10;;
80494;SDS011;69819;48.798;11.770;2024-02-21T08:01:06;1.70;;;1.20;;
80494;SDS011;69819;48.798;11.770;2024-02-21T08:03:33;3.17;;;1.30;;
80494;SDS011;69819;48.798;11.770;2024-02-21T08:06:00;3.63;;;1.25;;
80494;SDS011;69819;48.798;11.770;2024-02-21T08:08:26;1.63;;;1.05;;
80494;SDS011;69819;48.798;11.770;2024-02-21T08:10:52;1.10;;;0.90;;
80494;SDS011;69819;48.798;11.770;2024-02-21T08:13:18;2.17;;;1.10;;
80494;SDS011;69819;48.798;11.770;2024-02-21T08:15:43;2.10;;;1.30;;
80494;SDS011;69819;48.798;11.770;2024-02-21T08:18:09;2.90;;;1.17;;
80494;SDS011;69819;48.798;11.770;2024-02-21T08:20:35;1.20;;;1.10;;
80494;SDS011;69819;48.798;11.770;2024-02-21T08:23:01;1.98;;;1.10;;
80494;SDS011;69819;48.798;11.770;2024-02-21T08:25:27;1.95;;;1.00;;
80494;SDS011;69819;48.798;11.770;2024-02-21T08:27:57;3.55;;;1.42;;
80494;SDS011;69819;48.798;11.770;2024-02-21T08:30:24;2.05;;;1.00;;
80494;SDS011;69819;48.798;11.770;2024-02-21T08:32:50;1.73;;;1.02;;
80494;SDS011;69819;48.798;11.770;2024-02-21T08:35:16;1.42;;;0.90;;
80494;SDS011;69819;48.798;11.770;2024-02-21T08:37:47;1.55;;;0.80;;
80494;SDS011;69819;48.798;11.770;2024-02-21T08:40:13;1.23;;;0.80;;
80494;SDS011;69819;48.798;11.770;2024-02-21T08:42:42;1.60;;;1.13;;
80494;SDS011;69819;48.798;11.770;2024-02-21T08:45:09;2.00;;;1.10;;
80494;SDS011;69819;48.798;11.770;2024-02-21T08:47:35;1.05;;;0.90;;
80494;SDS011;69819;48.798;11.770;2024-02-21T08:50:04;2.08;;;0.93;;
80494;SDS011;69819;48.798;11.770;2024-02-21T08:52:31;1.10;;;0.90;;
80494;SDS011;69819;48.798;11.770;2024-02-21T08:54:56;2.88;;;1.00;;
80494;SDS011;69819;48.798;11.770;2024-02-21T08:57:22;3.03;;;1.25;;
80494;SDS011;69819;48.798;11.770;2024-02-21T08:59:48;2.03;;;1.10;;
80494;SDS011;69819;48.798;11.770;2024-02-21T09:02:14;1.50;;;1.02;;
80494;SDS011;69819;48.798;11.770;2024-02-21T09:04:42;1.75;;;1.25;;
80494;SDS011;69819;48.798;11.770;2024-02-21T09:07:09;2.45;;;1.00;;
80494;SDS011;69819;48.798;11.770;2024-02-21T09:09:38;1.05;;;0.90;;
80494;SDS011;69819;48.798;11.770;2024-02-21T09:12:07;1.40;;;1.00;;
80494;SDS011;69819;48.798;11.770;2024-02-21T09:14:34;0.90;;;0.90;;
80494;SDS011;69819;48.798;11.770;2024-02-21T09:17:03;1.77;;;1.00;;
80494;SDS011;69819;48.798;11.770;2024-02-21T09:19:29;2.03;;;1.00;;
80494;SDS011;69819;48.798;11.770;2024-02-21T09:21:55;1.50;;;1.40;;
80494;SDS011;69819;48.798;11.770;2024-02-21T09:24:20;1.80;;;1.35;;
80494;SDS011;69819;48.798;11.770;2024-02-21T09:26:46;1.48;;;1.10;;
80494;SDS011;69819;48.798;11.770;2024-02-21T09:29:12;1.23;;;1.15;;
80494;SDS011;69819;48.798;11.770;2024-02-21T09:31:38;1.60;;;1.30;;
80494;SDS011;69819;48.798;11.770;2024-02-21T09:34:04;1.42;;;1.30;;
80494;SDS011;69819;48.798;11.770;2024-02-21T09:36:30;1.98;;;1.10;;
80494;SDS011;69819;48.798;11.770;2024-02-21T09:38:56;2.08;;;1.10;;
80494;SDS011;69819;48.798;11.770;2024-02-21T09:41:28;2.40;;;1.20;;
80494;SDS011;69819;48.798;11.770;2024-02-21T09:43:53;2.75;;;0.70;;
80494;SDS011;69819;48.798;11.770;2024-02-21T09:46:21;1.13;;;0.90;;
80494;SDS011;69819;48.798;11.770;2024-02-21T09:51:36;2.38;;;1.00;;
80494;SDS011;69819;48.798;11.770;2024-02-21T09:54:03;0.82;;;0.80;;
80494;SDS011;69819;48.798;11.770;2024-02-21T09:56:29;1.05;;;0.95;;
80494;SDS011;69819;48.798;11.770;2024-02-21T09:58:55;1.55;;;0.95;;
80494;SDS011;69819;48.798;11.770;2024-02-21T10:01:22;0.80;;;0.80;;
80494;SDS011;69819;48.798;11.770;2024-02-21T10:03:48;1.83;;;0.88;;
80494;SDS011;69819;48.798;11.770;2024-02-21T10:06:14;1.63;;;0.90;;
80494;SDS011;69819;48.798;11.770;2024-02-21T10:08:40;2.28;;;0.98;;
80494;SDS011;69819;48.798;11.770;2024-02-21T10:11:06;1.17;;;0.80;;
80494;SDS011;69819;48.798;11.770;2024-02-21T10:13:34;2.30;;;1.05;;
80494;SDS011;69819;48.798;11.770;2024-02-21T10:16:06;1.77;;;0.95;;
80494;SDS011;69819;48.798;11.770;2024-02-21T10:18:33;1.02;;;0.80;;
80494;SDS011;69819;48.798;11.770;2024-02-21T10:21:00;1.40;;;1.17;;
80494;SDS011;69819;48.798;11.770;2024-02-21T10:23:26;1.50;;;0.82;;
80494;SDS011;69819;48.798;11.770;2024-02-21T10:25:52;0.80;;;0.80;;
80494;SDS011;69819;48.798;11.770;2024-02-21T10:28:18;1.02;;;0.80;;
80494;SDS011;69819;48.798;11.770;2024-02-21T10:30:51;1.75;;;0.80;;
80494;SDS011;69819;48.798;11.770;2024-02-21T10:33:18;2.63;;;1.00;;
80494;SDS011;69819;48.798;11.770;2024-02-21T10:35:47;1.00;;;0.75;;
80494;SDS011;69819;48.798;11.770;2024-02-21T10:38:14;2.25;;;0.80;;
80494;SDS011;69819;48.798;11.770;2024-02-21T10:40:40;2.17;;;0.93;;
80494;SDS011;69819;48.798;11.770;2024-02-21T10:43:07;1.70;;;0.80;;
80494;SDS011;69819;48.798;11.770;2024-02-21T10:45:39;1.08;;;0.70;;
80494;SDS011;69819;48.798;11.770;2024-02-21T10:48:16;1.90;;;0.90;;
80494;SDS011;69819;48.798;11.770;2024-02-21T10:51:19;2.22;;;0.95;;
80494;SDS011;69819;48.798;11.770;2024-02-21T10:53:54;1.65;;;0.60;;
80494;SDS011;69819;48.798;11.770;2024-02-21T10:56:48;0.77;;;0.65;;
80494;SDS011;69819;48.798;11.770;2024-02-21T10:59:16;2.05;;;0.80;;
80494;SDS011;69819;48.798;11.770;2024-02-21T11:01:43;1.45;;;0.68;;
80494;SDS011;69819;48.798;11.770;2024-02-21T11:04:09;1.90;;;0.80;;
80494;SDS011;69819;48.798;11.770;2024-02-21T11:06:37;3.47;;;0.70;;
80494;SDS011;69819;48.798;11.770;2024-02-21T11:09:06;1.17;;;0.93;;
80494;SDS011;69819;48.798;11.770;2024-02-21T11:11:34;0.82;;;0.70;;
80494;SDS011;69819;48.798;11.770;2024-02-21T11:14:09;1.48;;;0.85;;
80494;SDS011;69819;48.798;11.770;2024-02-21T11:16:47;0.85;;;0.60;;
80494;SDS011;69819;48.798;11.770;2024-02-21T11:19:20;1.88;;;0.88;;
80494;SDS011;69819;48.798;11.770;2024-02-21T11:21:51;2.80;;;0.90;;
80494;SDS011;69819;48.798;11.770;2024-02-21T11:24:26;1.75;;;0.82;;
80494;SDS011;69819;48.798;11.770;2024-02-21T11:26:54;2.50;;;0.95;;
80494;SDS011;69819;48.798;11.770;2024-02-21T11:29:23;1.15;;;0.70;;
80494;SDS011;69819;48.798;11.770;2024-02-21T11:31:50;2.05;;;0.63;;
80494;SDS011;69819;48.798;11.770;2024-02-21T11:34:17;1.17;;;0.65;;
80494;SDS011;69819;48.798;11.770;2024-02-21T11:39:22;1.65;;;0.70;;
80494;SDS011;69819;48.798;11.770;2024-02-21T11:44:36;1.33;;;0.70;;
80494;SDS011;69819;48.798;11.770;2024-02-21T11:47:07;1.23;;;0.60;;
80494;SDS011;69819;48.798;11.770;2024-02-21T11:49:37;0.85;;;0.65;;
80494;SDS011;69819;48.798;11.770;2024-02-21T11:52:08;1.70;;;0.80;;
80494;SDS011;69819;48.798;11.770;2024-02-21T11:54:34;1.65;;;0.60;;
80494;SDS011;69819;48.798;11.770;2024-02-21T11:57:00;1.10;;;0.70;;
80494;SDS011;69819;48.798;11.770;2024-02-21T11:59:26;1.95;;;0.70;;
80494;SDS011;69819;48.798;11.770;2024-02-21T12:01:55;1.45;;;0.70;;
80494;SDS011;69819;48.798;11.770;2024-02-21T12:04:24;1.48;;;0.80;;
80494;SDS011;69819;48.798;11.770;2024-02-21T12:06:50;1.77;;;0.50;;
80494;SDS011;69819;48.798;11.770;2024-02-21T12:09:19;1.65;;;0.63;;
80494;SDS011;69819;48.798;11.770;2024-02-21T12:11:45;0.70;;;0.55;;
80494;SDS011;69819;48.798;11.770;2024-02-21T12:14:21;0.63;;;0.55;;
80494;SDS011;69819;48.798;11.770;2024-02-21T12:16:50;1.02;;;0.90;;
80494;SDS011;69819;48.798;11.770;2024-02-21T12:19:15;1.13;;;0.80;;
80494;SDS011;69819;48.798;11.770;2024-02-21T12:21:42;1.10;;;0.57;;
80494;SDS011;69819;48.798;11.770;2024-02-21T12:24:17;0.50;;;0.40;;
80494;SDS011;69819;48.798;11.770;2024-02-21T12:26:49;1.00;;;0.63;;
80494;SDS011;69819;48.798;11.770;2024-02-21T12:29:17;0.68;;;0.45;;
80494;SDS011;69819;48.798;11.770;2024-02-21T12:31:47;1.17;;;0.50;;
80494;SDS011;69819;48.798;11.770;2024-02-21T12:34:14;0.70;;;0.60;;
80494;SDS011;69819;48.798;11.770;2024-02-21T12:36:41;1.00;;;0.65;;
80494;SDS011;69819;48.798;11.770;2024-02-21T12:39:12;2.10;;;0.70;;
80494;SDS011;69819;48.798;11.770;2024-02-21T12:41:39;1.48;;;0.60;;
80494;SDS011;69819;48.798;11.770;2024-02-21T12:44:09;1.17;;;0.55;;
80494;SDS011;69819;48.798;11.770;2024-02-21T12:46:36;2.08;;;0.70;;
80494;SDS011;69819;48.798;11.770;2024-02-21T12:49:04;0.50;;;0.50;;
80494;SDS011;69819;48.798;11.770;2024-02-21T12:51:32;0.60;;;0.40;;
80494;SDS011;69819;48.798;11.770;2024-02-21T12:53:58;0.45;;;0.45;;
80494;SDS011;69819;48.798;11.770;2024-02-21T12:56:24;0.68;;;0.60;;
80494;SDS011;69819;48.798;11.770;2024-02-21T12:58:55;1.33;;;0.50;;
80494;SDS011;69819;48.798;11.770;2024-02-21T13:01:20;0.52;;;0.52;;
80494;SDS011;69819;48.798;11.770;2024-02-21T13:03:46;1.25;;;0.50;;
80494;SDS011;69819;48.798;11.770;2024-02-21T13:06:12;1.63;;;0.70;;
80494;SDS011;69819;48.798;11.770;2024-02-21T13:08:39;0.70;;;0.50;;
80494;SDS011;69819;48.798;11.770;2024-02-21T13:11:06;0.80;;;0.40;;
80494;SDS011;69819;48.798;11.770;2024-02-21T13:13:31;0.98;;;0.55;;
80494;SDS011;69819;48.798;11.770;2024-02-21T13:15:58;1.10;;;0.50;;
80494;SDS011;69819;48.798;11.770;2024-02-21T13:18:24;1.45;;;0.50;;
80494;SDS011;69819;48.798;11.770;2024-02-21T13:20:50;1.30;;;0.50;;
80494;SDS011;69819;48.798;11.770;2024-02-21T13:23:16;1.35;;;0.40;;
80494;SDS011;69819;48.798;11.770;2024-02-21T13:25:42;1.00;;;0.50;;
80494;SDS011;69819;48.798;11.770;2024-02-21T13:28:10;0.70;;;0.50;;
80494;SDS011;69819;48.798;11.770;2024-02-21T13:30:36;1.20;;;0.60;;
80494;SDS011;69819;48.798;11.770;2024-02-21T13:33:02;0.55;;;0.43;;
80494;SDS011;69819;48.798;11.770;2024-02-21T13:35:28;0.60;;;0.50;;
80494;SDS011;69819;48.798;11.770;2024-02-21T13:37:54;2.25;;;0.43;;
80494;SDS011;69819;48.798;11.770;2024-02-21T13:40:20;1.20;;;0.60;;
80494;SDS011;69819;48.798;11.770;2024-02-21T13:42:45;0.60;;;0.52;;
80494;SDS011;69819;48.798;11.770;2024-02-21T13:45:11;0.57;;;0.50;;
80494;SDS011;69819;48.798;11.770;2024-02-21T13:47:37;0.90;;;0.60;;
80494;SDS011;69819;48.798;11.770;2024-02-21T13:50:04;1.13;;;0.40;;
80494;SDS011;69819;48.798;11.770;2024-02-21T13:52:34;1.33;;;0.50;;
80494;SDS011;69819;48.798;11.770;2024-02-21T13:55:00;1.15;;;0.50;;
80494;SDS011;69819;48.798;11.770;2024-02-21T13:57:25;1.45;;;0.50;;
80494;SDS011;69819;48.798;11.770;2024-02-21T13:59:51;1.10;;;0.52;;
80494;SDS011;69819;48.798;11.770;2024-02-21T14:02:17;0.88;;;0.50;;
80494;SDS011;69819;48.798;11.770;2024-02-21T14:04:43;0.47;;;0.32;;
80494;SDS011;69819;48.798;11.770;2024-02-21T14:07:09;1.00;;;0.40;;
80494;SDS011;69819;48.798;11.770;2024-02-21T14:09:35;2.00;;;0.95;;
80494;SDS011;69819;48.798;11.770;2024-02-21T14:12:01;0.85;;;0.43;;
80494;SDS011;69819;48.798;11.770;2024-02-21T14:14:27;1.00;;;0.50;;
80494;SDS011;69819;48.798;11.770;2024-02-21T14:16:53;0.93;;;0.50;;
80494;SDS011;69819;48.798;11.770;2024-02-21T14:19:18;1.33;;;0.50;;
80494;SDS011;69819;48.798;11.770;2024-02-21T14:21:44;0.43;;;0.30;;
80494;SDS011;69819;48.798;11.770;2024-02-21T14:24:11;0.60;;;0.40;;
80494;SDS011;69819;48.798;11.770;2024-02-21T14:26:37;1.00;;;0.40;;
80494;SDS011;69819;48.798;11.770;2024-02-21T14:29:06;0.95;;;0.30;;
80494;SDS011;69819;48.798;11.770;2024-02-21T14:31:32;0.35;;;0.30;;
80494;SDS011;69819;48.798;11.770;2024-02-21T14:33:58;0.22;;;0.22;;
80494;SDS011;69819;48.798;11.770;2024-02-21T14:36:24;0.40;;;0.40;;
80494;SDS011;69819;48.798;11.770;2024-02-21T14:38:51;0.57;;;0.30;;
80494;SDS011;69819;48.798;11.770;2024-02-21T14:41:17;0.40;;;0.40;;